sensor_id;sensor_type;location;lat;lon;timestamp;P1;durP1;ratioP1;P2;durP2;ratioP2
10442;SDS011;5269;51.146;16.986;2022-08-01T00:02:14;4.13;;;2.75;;
10442;SDS011;5269;51.146;16.986;2022-08-01T00:04:41;3.22;;;2.92;;
10442;SDS011;5269;51.146;16.986;2022-08-01T00:07:08;3.28;;;2.97;;
10442;SDS011;5269;51.146;16.986;2022-08-01T00:09:35;3.20;;;2.67;;
10442;SDS011;5269;51.146;16.986;2022-08-01T00:12:02;3.17;;;2.78;;
10442;SDS011;5269;51.146;16.986;2022-08-01T00:14:30;4.82;;;3.10;;
10442;SDS011;5269;51.146;16.986;2022-08-01T00:16:57;3.40;;;3.10;;
10442;SDS011;5269;51.146;16.986;2022-08-01T00:19:25;3.25;;;3.05;;
10442;SDS011;5269;51.146;16.986;2022-08-01T00:21:52;4.90;;;2.83;;
10442;SDS011;5269;51.146;16.986;2022-08-01T00:24:19;4.53;;;3.15;;
10442;SDS011;5269;51.146;16.986;2022-08-01T00:26:46;3.25;;;3.05;;
10442;SDS011;5269;51.146;16.986;2022-08-01T00:29:13;3.55;;;2.83;;
10442;SDS011;5269;51.146;16.986;2022-08-01T00:31:40;4.40;;;3.00;;
10442;SDS011;5269;51.146;16.986;2022-08-01T00:34:07;3.13;;;2.92;;
10442;SDS011;5269;51.146;16.986;2022-08-01T00:36:35;3.60;;;3.30;;
10442;SDS011;5269;51.146;16.986;2022-08-01T00:39:02;3.53;;;3.00;;
10442;SDS011;5269;51.146;16.986;2022-08-01T00:41:29;3.47;;;3.17;;
10442;SDS011;5269;51.146;16.986;2022-08-01T00:43:56;3.95;;;3.17;;
10442;SDS011;5269;51.146;16.986;2022-08-01T00:46:23;4.00;;;3.60;;
10442;SDS011;5269;51.146;16.986;2022-08-01T00:51:43;3.35;;;3.05;;
10442;SDS011;5269;51.146;16.986;2022-08-01T00:54:10;4.18;;;3.03;;
10442;SDS011;5269;51.146;16.986;2022-08-01T00:56:37;3.95;;;3.10;;
10442;SDS011;5269;51.146;16.986;2022-08-01T00:59:04;3.08;;;2.88;;
10442;SDS011;5269;51.146;16.986;2022-08-01T01:01:31;5.63;;;3.10;;
10442;SDS011;5269;51.146;16.986;2022-08-01T01:03:58;7.40;;;3.35;;
10442;SDS011;5269;51.146;16.986;2022-08-01T01:06:27;3.28;;;2.90;;
10442;SDS011;5269;51.146;16.986;2022-08-01T01:09:06;4.63;;;2.90;;
10442;SDS011;5269;51.146;16.986;2022-08-01T01:11:55;4.63;;;3.30;;
10442;SDS011;5269;51.146;16.986;2022-08-01T01:14:30;3.63;;;3.33;;
10442;SDS011;5269;51.146;16.986;2022-08-01T01:17:00;3.92;;;2.90;;
10442;SDS011;5269;51.146;16.986;2022-08-01T01:19:30;3.88;;;3.13;;
10442;SDS011;5269;51.146;16.986;2022-08-01T01:25:09;3.30;;;3.00;;
10442;SDS011;5269;51.146;16.986;2022-08-01T01:27:49;3.45;;;3.15;;
10442;SDS011;5269;51.146;16.986;2022-08-01T01:30:22;3.65;;;3.20;;
10442;SDS011;5269;51.146;16.986;2022-08-01T01:32:52;3.05;;;2.85;;
10442;SDS011;5269;51.146;16.986;2022-08-01T01:35:24;3.85;;;3.28;;
10442;SDS011;5269;51.146;16.986;2022-08-01T01:37:55;3.58;;;3.30;;
10442;SDS011;5269;51.146;16.986;2022-08-01T01:40:26;3.80;;;3.50;;
10442;SDS011;5269;51.146;16.986;2022-08-01T01:42:54;5.85;;;3.30;;
10442;SDS011;5269;51.146;16.986;2022-08-01T01:45:24;3.72;;;3.38;;
10442;SDS011;5269;51.146;16.986;2022-08-01T01:47:52;5.43;;;3.20;;
10442;SDS011;5269;51.146;16.986;2022-08-01T01:50:21;3.22;;;2.95;;
10442;SDS011;5269;51.146;16.986;2022-08-01T01:52:49;3.72;;;3.42;;
10442;SDS011;5269;51.146;16.986;2022-08-01T01:55:17;3.75;;;3.45;;
10442;SDS011;5269;51.146;16.986;2022-08-01T01:57:46;3.40;;;3.10;;
10442;SDS011;5269;51.146;16.986;2022-08-01T02:00:14;3.90;;;3.60;;
10442;SDS011;5269;51.146;16.986;2022-08-01T02:02:44;6.40;;;3.63;;
10442;SDS011;5269;51.146;16.986;2022-08-01T02:05:12;3.55;;;3.25;;
10442;SDS011;5269;51.146;16.986;2022-08-01T02:07:39;3.60;;;3.30;;
10442;SDS011;5269;51.146;16.986;2022-08-01T02:10:07;3.60;;;3.30;;
10442;SDS011;5269;51.146;16.986;2022-08-01T02:12:39;3.75;;;3.40;;
10442;SDS011;5269;51.146;16.986;2022-08-01T02:15:10;3.40;;;3.20;;
10442;SDS011;5269;51.146;16.986;2022-08-01T02:17:41;3.47;;;3.17;;
10442;SDS011;5269;51.146;16.986;2022-08-01T02:20:13;3.78;;;3.47;;
10442;SDS011;5269;51.146;16.986;2022-08-01T02:22:42;3.70;;;3.40;;
10442;SDS011;5269;51.146;16.986;2022-08-01T02:25:15;4.55;;;3.10;;
10442;SDS011;5269;51.146;16.986;2022-08-01T02:27:50;7.60;;;3.30;;
10442;SDS011;5269;51.146;16.986;2022-08-01T02:30:21;4.47;;;3.22;;
10442;SDS011;5269;51.146;16.986;2022-08-01T02:32:53;4.05;;;3.38;;
10442;SDS011;5269;51.146;16.986;2022-08-01T02:35:27;5.65;;;3.50;;
10442;SDS011;5269;51.146;16.986;2022-08-01T02:37:57;5.25;;;3.60;;
10442;SDS011;5269;51.146;16.986;2022-08-01T02:40:25;4.60;;;3.25;;
10442;SDS011;5269;51.146;16.986;2022-08-01T02:42:54;4.00;;;3.70;;
10442;SDS011;5269;51.146;16.986;2022-08-01T02:45:24;5.03;;;3.70;;
10442;SDS011;5269;51.146;16.986;2022-08-01T02:48:04;3.80;;;3.40;;
10442;SDS011;5269;51.146;16.986;2022-08-01T02:50:35;3.45;;;2.97;;
10442;SDS011;5269;51.146;16.986;2022-08-01T02:53:03;4.95;;;3.25;;
10442;SDS011;5269;51.146;16.986;2022-08-01T02:55:39;3.60;;;3.30;;
10442;SDS011;5269;51.146;16.986;2022-08-01T02:58:10;4.25;;;3.00;;
10442;SDS011;5269;51.146;16.986;2022-08-01T03:00:40;5.78;;;3.30;;
10442;SDS011;5269;51.146;16.986;2022-08-01T03:03:10;3.83;;;3.15;;
10442;SDS011;5269;51.146;16.986;2022-08-01T03:05:38;4.38;;;3.17;;
10442;SDS011;5269;51.146;16.986;2022-08-01T03:08:06;3.65;;;3.35;;
10442;SDS011;5269;51.146;16.986;2022-08-01T03:10:36;4.72;;;3.22;;
10442;SDS011;5269;51.146;16.986;2022-08-01T03:13:06;3.30;;;3.00;;
10442;SDS011;5269;51.146;16.986;2022-08-01T03:15:35;3.42;;;3.22;;
10442;SDS011;5269;51.146;16.986;2022-08-01T03:18:05;4.15;;;3.38;;
10442;SDS011;5269;51.146;16.986;2022-08-01T03:20:36;3.78;;;3.38;;
10442;SDS011;5269;51.146;16.986;2022-08-01T03:23:04;4.18;;;3.28;;
10442;SDS011;5269;51.146;16.986;2022-08-01T03:25:34;4.82;;;3.42;;
10442;SDS011;5269;51.146;16.986;2022-08-01T03:28:04;4.07;;;3.38;;
10442;SDS011;5269;51.146;16.986;2022-08-01T03:30:33;4.10;;;3.13;;
10442;SDS011;5269;51.146;16.986;2022-08-01T03:33:03;16.00;;;3.75;;
10442;SDS011;5269;51.146;16.986;2022-08-01T03:35:31;4.93;;;3.10;;
10442;SDS011;5269;51.146;16.986;2022-08-01T03:38:03;4.15;;;3.20;;
10442;SDS011;5269;51.146;16.986;2022-08-01T03:40:33;5.75;;;3.17;;
10442;SDS011;5269;51.146;16.986;2022-08-01T03:43:04;4.40;;;3.38;;
10442;SDS011;5269;51.146;16.986;2022-08-01T03:45:34;4.72;;;3.33;;
10442;SDS011;5269;51.146;16.986;2022-08-01T03:48:09;3.88;;;3.58;;
10442;SDS011;5269;51.146;16.986;2022-08-01T03:50:39;3.83;;;3.53;;
10442;SDS011;5269;51.146;16.986;2022-08-01T03:53:13;5.00;;;3.50;;
10442;SDS011;5269;51.146;16.986;2022-08-01T03:55:41;4.18;;;3.45;;
10442;SDS011;5269;51.146;16.986;2022-08-01T03:58:09;4.13;;;3.70;;
10442;SDS011;5269;51.146;16.986;2022-08-01T04:00:38;3.80;;;3.50;;
10442;SDS011;5269;51.146;16.986;2022-08-01T04:03:06;5.38;;;3.97;;
10442;SDS011;5269;51.146;16.986;2022-08-01T04:05:33;4.88;;;3.75;;
10442;SDS011;5269;51.146;16.986;2022-08-01T04:08:01;6.85;;;4.15;;
10442;SDS011;5269;51.146;16.986;2022-08-01T04:10:30;5.57;;;4.20;;
10442;SDS011;5269;51.146;16.986;2022-08-01T04:12:56;5.10;;;3.58;;
10442;SDS011;5269;51.146;16.986;2022-08-01T04:15:23;3.97;;;3.58;;
10442;SDS011;5269;51.146;16.986;2022-08-01T04:17:50;3.50;;;3.20;;
10442;SDS011;5269;51.146;16.986;2022-08-01T04:20:19;4.38;;;3.58;;
10442;SDS011;5269;51.146;16.986;2022-08-01T04:22:46;5.13;;;3.50;;
10442;SDS011;5269;51.146;16.986;2022-08-01T04:25:14;3.85;;;3.42;;
10442;SDS011;5269;51.146;16.986;2022-08-01T04:27:48;3.55;;;3.25;;
10442;SDS011;5269;51.146;16.986;2022-08-01T04:30:16;4.13;;;3.55;;
10442;SDS011;5269;51.146;16.986;2022-08-01T04:32:46;3.78;;;3.47;;
10442;SDS011;5269;51.146;16.986;2022-08-01T04:35:15;4.93;;;3.80;;
10442;SDS011;5269;51.146;16.986;2022-08-01T04:37:44;5.57;;;3.70;;
10442;SDS011;5269;51.146;16.986;2022-08-01T04:40:13;5.38;;;3.60;;
10442;SDS011;5269;51.146;16.986;2022-08-01T04:42:42;4.32;;;3.92;;
10442;SDS011;5269;51.146;16.986;2022-08-01T04:45:10;4.50;;;3.80;;
10442;SDS011;5269;51.146;16.986;2022-08-01T04:47:37;6.07;;;3.63;;
10442;SDS011;5269;51.146;16.986;2022-08-01T04:50:08;4.60;;;4.00;;
10442;SDS011;5269;51.146;16.986;2022-08-01T04:52:36;5.90;;;3.70;;
10442;SDS011;5269;51.146;16.986;2022-08-01T04:55:04;4.80;;;3.47;;
10442;SDS011;5269;51.146;16.986;2022-08-01T04:57:32;9.35;;;4.28;;
10442;SDS011;5269;51.146;16.986;2022-08-01T05:00:00;4.43;;;4.00;;
10442;SDS011;5269;51.146;16.986;2022-08-01T05:02:29;8.40;;;3.75;;
10442;SDS011;5269;51.146;16.986;2022-08-01T05:04:56;7.13;;;4.18;;
10442;SDS011;5269;51.146;16.986;2022-08-01T05:07:23;4.43;;;4.03;;
10442;SDS011;5269;51.146;16.986;2022-08-01T05:09:50;8.35;;;4.25;;
10442;SDS011;5269;51.146;16.986;2022-08-01T05:12:17;4.90;;;4.03;;
10442;SDS011;5269;51.146;16.986;2022-08-01T05:14:45;6.07;;;4.25;;
10442;SDS011;5269;51.146;16.986;2022-08-01T05:17:12;4.50;;;4.10;;
10442;SDS011;5269;51.146;16.986;2022-08-01T05:19:41;5.38;;;3.95;;
10442;SDS011;5269;51.146;16.986;2022-08-01T05:22:08;3.92;;;3.58;;
10442;SDS011;5269;51.146;16.986;2022-08-01T05:24:36;4.85;;;3.97;;
10442;SDS011;5269;51.146;16.986;2022-08-01T05:27:04;4.70;;;4.25;;
10442;SDS011;5269;51.146;16.986;2022-08-01T05:29:32;4.53;;;4.13;;
10442;SDS011;5269;51.146;16.986;2022-08-01T05:32:06;7.28;;;4.85;;
10442;SDS011;5269;51.146;16.986;2022-08-01T05:34:34;7.82;;;4.53;;
10442;SDS011;5269;51.146;16.986;2022-08-01T05:37:02;5.38;;;4.32;;
10442;SDS011;5269;51.146;16.986;2022-08-01T05:39:29;8.65;;;5.07;;
10442;SDS011;5269;51.146;16.986;2022-08-01T05:41:56;7.93;;;5.40;;
10442;SDS011;5269;51.146;16.986;2022-08-01T05:44:23;7.45;;;5.57;;
10442;SDS011;5269;51.146;16.986;2022-08-01T05:46:51;6.90;;;5.57;;
10442;SDS011;5269;51.146;16.986;2022-08-01T05:49:18;6.30;;;5.70;;
10442;SDS011;5269;51.146;16.986;2022-08-01T05:51:45;5.50;;;5.00;;
10442;SDS011;5269;51.146;16.986;2022-08-01T05:54:13;10.07;;;5.50;;
10442;SDS011;5269;51.146;16.986;2022-08-01T05:56:40;6.90;;;5.43;;
10442;SDS011;5269;51.146;16.986;2022-08-01T05:59:07;8.60;;;5.78;;
10442;SDS011;5269;51.146;16.986;2022-08-01T06:01:34;5.75;;;5.25;;
10442;SDS011;5269;51.146;16.986;2022-08-01T06:04:01;10.15;;;5.28;;
10442;SDS011;5269;51.146;16.986;2022-08-01T06:06:28;7.18;;;4.95;;
10442;SDS011;5269;51.146;16.986;2022-08-01T06:08:54;8.50;;;5.07;;
10442;SDS011;5269;51.146;16.986;2022-08-01T06:11:23;7.13;;;4.97;;
10442;SDS011;5269;51.146;16.986;2022-08-01T06:13:50;5.47;;;4.68;;
10442;SDS011;5269;51.146;16.986;2022-08-01T06:16:17;8.60;;;4.68;;
10442;SDS011;5269;51.146;16.986;2022-08-01T06:18:44;6.22;;;4.95;;
10442;SDS011;5269;51.146;16.986;2022-08-01T06:21:11;6.38;;;5.05;;
10442;SDS011;5269;51.146;16.986;2022-08-01T06:23:38;6.03;;;5.03;;
10442;SDS011;5269;51.146;16.986;2022-08-01T06:26:06;5.65;;;5.00;;
10442;SDS011;5269;51.146;16.986;2022-08-01T06:28:34;10.77;;;4.95;;
10442;SDS011;5269;51.146;16.986;2022-08-01T06:31:01;6.78;;;4.57;;
10442;SDS011;5269;51.146;16.986;2022-08-01T06:33:28;6.45;;;4.90;;
10442;SDS011;5269;51.146;16.986;2022-08-01T06:35:55;6.25;;;4.88;;
10442;SDS011;5269;51.146;16.986;2022-08-01T06:38:22;5.20;;;4.25;;
10442;SDS011;5269;51.146;16.986;2022-08-01T06:40:50;6.45;;;4.60;;
10442;SDS011;5269;51.146;16.986;2022-08-01T06:43:17;4.85;;;4.35;;
10442;SDS011;5269;51.146;16.986;2022-08-01T06:45:45;5.00;;;4.05;;
10442;SDS011;5269;51.146;16.986;2022-08-01T06:48:12;5.18;;;4.63;;
10442;SDS011;5269;51.146;16.986;2022-08-01T06:50:39;7.40;;;4.63;;
10442;SDS011;5269;51.146;16.986;2022-08-01T06:53:06;10.52;;;4.60;;
10442;SDS011;5269;51.146;16.986;2022-08-01T06:55:33;4.70;;;4.25;;
10442;SDS011;5269;51.146;16.986;2022-08-01T06:58:00;6.07;;;4.50;;
10442;SDS011;5269;51.146;16.986;2022-08-01T07:00:27;5.47;;;4.50;;
10442;SDS011;5269;51.146;16.986;2022-08-01T07:02:56;5.00;;;4.60;;
10442;SDS011;5269;51.146;16.986;2022-08-01T07:05:25;5.22;;;4.72;;
10442;SDS011;5269;51.146;16.986;2022-08-01T07:07:52;6.13;;;4.55;;
10442;SDS011;5269;51.146;16.986;2022-08-01T07:10:19;6.13;;;4.53;;
10442;SDS011;5269;51.146;16.986;2022-08-01T07:12:46;6.38;;;4.50;;
10442;SDS011;5269;51.146;16.986;2022-08-01T07:15:13;6.38;;;4.30;;
10442;SDS011;5269;51.146;16.986;2022-08-01T07:17:41;4.72;;;4.32;;
10442;SDS011;5269;51.146;16.986;2022-08-01T07:20:10;6.57;;;3.80;;
10442;SDS011;5269;51.146;16.986;2022-08-01T07:22:38;6.57;;;4.00;;
10442;SDS011;5269;51.146;16.986;2022-08-01T07:25:09;6.53;;;4.07;;
10442;SDS011;5269;51.146;16.986;2022-08-01T07:27:38;4.70;;;3.70;;
10442;SDS011;5269;51.146;16.986;2022-08-01T07:30:05;3.90;;;3.60;;
10442;SDS011;5269;51.146;16.986;2022-08-01T07:32:36;4.20;;;3.80;;
10442;SDS011;5269;51.146;16.986;2022-08-01T07:35:06;4.38;;;3.97;;
10442;SDS011;5269;51.146;16.986;2022-08-01T07:37:35;6.40;;;3.78;;
10442;SDS011;5269;51.146;16.986;2022-08-01T07:40:02;5.43;;;4.00;;
10442;SDS011;5269;51.146;16.986;2022-08-01T07:42:31;5.00;;;3.80;;
10442;SDS011;5269;51.146;16.986;2022-08-01T07:44:58;6.15;;;4.20;;
10442;SDS011;5269;51.146;16.986;2022-08-01T07:47:25;4.07;;;3.60;;
10442;SDS011;5269;51.146;16.986;2022-08-01T07:49:52;5.75;;;3.78;;
10442;SDS011;5269;51.146;16.986;2022-08-01T07:52:25;4.68;;;4.28;;
10442;SDS011;5269;51.146;16.986;2022-08-01T07:54:54;4.63;;;3.90;;
10442;SDS011;5269;51.146;16.986;2022-08-01T07:57:21;4.22;;;3.90;;
10442;SDS011;5269;51.146;16.986;2022-08-01T07:59:48;6.55;;;4.40;;
10442;SDS011;5269;51.146;16.986;2022-08-01T08:02:15;6.05;;;3.78;;
10442;SDS011;5269;51.146;16.986;2022-08-01T08:04:42;4.93;;;3.70;;
10442;SDS011;5269;51.146;16.986;2022-08-01T08:07:09;6.30;;;4.10;;
10442;SDS011;5269;51.146;16.986;2022-08-01T08:09:36;5.25;;;3.97;;
10442;SDS011;5269;51.146;16.986;2022-08-01T08:12:05;4.88;;;3.90;;
10442;SDS011;5269;51.146;16.986;2022-08-01T08:14:32;5.70;;;3.80;;
10442;SDS011;5269;51.146;16.986;2022-08-01T08:16:59;3.85;;;3.60;;
10442;SDS011;5269;51.146;16.986;2022-08-01T08:19:26;4.40;;;4.00;;
10442;SDS011;5269;51.146;16.986;2022-08-01T08:21:53;4.75;;;3.78;;
10442;SDS011;5269;51.146;16.986;2022-08-01T08:24:20;3.70;;;3.40;;
10442;SDS011;5269;51.146;16.986;2022-08-01T08:26:50;4.45;;;3.58;;
10442;SDS011;5269;51.146;16.986;2022-08-01T08:29:20;3.90;;;3.60;;
10442;SDS011;5269;51.146;16.986;2022-08-01T08:31:51;4.57;;;4.10;;
10442;SDS011;5269;51.146;16.986;2022-08-01T08:34:19;4.57;;;3.55;;
10442;SDS011;5269;51.146;16.986;2022-08-01T08:36:47;4.35;;;3.80;;
10442;SDS011;5269;51.146;16.986;2022-08-01T08:39:16;5.45;;;3.65;;
10442;SDS011;5269;51.146;16.986;2022-08-01T08:41:43;4.05;;;3.65;;
10442;SDS011;5269;51.146;16.986;2022-08-01T08:44:10;4.50;;;4.10;;
10442;SDS011;5269;51.146;16.986;2022-08-01T08:46:40;4.30;;;3.88;;
10442;SDS011;5269;51.146;16.986;2022-08-01T08:49:09;6.25;;;3.85;;
10442;SDS011;5269;51.146;16.986;2022-08-01T08:51:37;4.30;;;4.00;;
10442;SDS011;5269;51.146;16.986;2022-08-01T08:54:06;4.00;;;3.70;;
10442;SDS011;5269;51.146;16.986;2022-08-01T08:56:34;4.45;;;3.90;;
10442;SDS011;5269;51.146;16.986;2022-08-01T08:59:10;4.20;;;3.80;;
10442;SDS011;5269;51.146;16.986;2022-08-01T09:01:42;4.00;;;3.63;;
10442;SDS011;5269;51.146;16.986;2022-08-01T09:04:12;4.03;;;3.53;;
10442;SDS011;5269;51.146;16.986;2022-08-01T09:06:41;4.50;;;3.60;;
10442;SDS011;5269;51.146;16.986;2022-08-01T09:09:08;4.00;;;3.60;;
10442;SDS011;5269;51.146;16.986;2022-08-01T09:11:39;5.85;;;3.97;;
10442;SDS011;5269;51.146;16.986;2022-08-01T09:14:13;7.40;;;4.20;;
10442;SDS011;5269;51.146;16.986;2022-08-01T09:16:58;3.85;;;3.53;;
10442;SDS011;5269;51.146;16.986;2022-08-01T09:19:33;4.00;;;3.70;;
10442;SDS011;5269;51.146;16.986;2022-08-01T09:22:03;6.30;;;3.75;;
10442;SDS011;5269;51.146;16.986;2022-08-01T09:24:32;3.75;;;3.47;;
10442;SDS011;5269;51.146;16.986;2022-08-01T09:26:59;4.20;;;3.90;;
10442;SDS011;5269;51.146;16.986;2022-08-01T09:29:28;5.43;;;4.13;;
10442;SDS011;5269;51.146;16.986;2022-08-01T09:31:59;4.13;;;3.83;;
10442;SDS011;5269;51.146;16.986;2022-08-01T09:34:31;4.90;;;4.13;;
10442;SDS011;5269;51.146;16.986;2022-08-01T09:36:59;3.92;;;3.63;;
10442;SDS011;5269;51.146;16.986;2022-08-01T09:39:28;4.20;;;3.90;;
10442;SDS011;5269;51.146;16.986;2022-08-01T09:41:57;3.92;;;3.63;;
10442;SDS011;5269;51.146;16.986;2022-08-01T09:44:38;4.20;;;3.88;;
10442;SDS011;5269;51.146;16.986;2022-08-01T09:47:07;4.85;;;4.40;;
10442;SDS011;5269;51.146;16.986;2022-08-01T09:49:35;4.82;;;3.78;;
10442;SDS011;5269;51.146;16.986;2022-08-01T09:52:10;6.47;;;4.35;;
10442;SDS011;5269;51.146;16.986;2022-08-01T09:54:39;7.25;;;4.20;;
10442;SDS011;5269;51.146;16.986;2022-08-01T09:57:08;4.95;;;3.85;;
10442;SDS011;5269;51.146;16.986;2022-08-01T09:59:41;3.95;;;3.70;;
10442;SDS011;5269;51.146;16.986;2022-08-01T10:02:10;4.38;;;3.97;;
10442;SDS011;5269;51.146;16.986;2022-08-01T10:04:47;4.15;;;3.85;;
10442;SDS011;5269;51.146;16.986;2022-08-01T10:07:13;4.30;;;3.70;;
10442;SDS011;5269;51.146;16.986;2022-08-01T10:09:41;4.45;;;3.78;;
10442;SDS011;5269;51.146;16.986;2022-08-01T10:12:10;6.20;;;4.10;;
10442;SDS011;5269;51.146;16.986;2022-08-01T10:14:40;4.43;;;3.65;;
10442;SDS011;5269;51.146;16.986;2022-08-01T10:17:08;5.35;;;3.72;;
10442;SDS011;5269;51.146;16.986;2022-08-01T10:19:39;4.20;;;3.85;;
10442;SDS011;5269;51.146;16.986;2022-08-01T10:22:07;4.38;;;3.58;;
10442;SDS011;5269;51.146;16.986;2022-08-01T10:24:36;3.85;;;3.55;;
10442;SDS011;5269;51.146;16.986;2022-08-01T10:27:05;4.22;;;3.85;;
10442;SDS011;5269;51.146;16.986;2022-08-01T10:29:35;4.00;;;3.60;;
10442;SDS011;5269;51.146;16.986;2022-08-01T10:32:06;4.47;;;3.45;;
10442;SDS011;5269;51.146;16.986;2022-08-01T10:34:34;4.35;;;3.95;;
10442;SDS011;5269;51.146;16.986;2022-08-01T10:37:03;5.55;;;3.85;;
10442;SDS011;5269;51.146;16.986;2022-08-01T10:39:31;4.03;;;3.72;;
10442;SDS011;5269;51.146;16.986;2022-08-01T10:41:59;3.33;;;3.03;;
10442;SDS011;5269;51.146;16.986;2022-08-01T10:44:28;3.70;;;3.40;;
10442;SDS011;5269;51.146;16.986;2022-08-01T10:46:58;3.67;;;3.10;;
10442;SDS011;5269;51.146;16.986;2022-08-01T10:49:30;4.30;;;3.50;;
10442;SDS011;5269;51.146;16.986;2022-08-01T10:52:16;4.30;;;3.90;;
10442;SDS011;5269;51.146;16.986;2022-08-01T10:54:44;3.55;;;3.25;;
10442;SDS011;5269;51.146;16.986;2022-08-01T10:57:11;3.95;;;3.33;;
10442;SDS011;5269;51.146;16.986;2022-08-01T10:59:47;4.60;;;3.47;;
10442;SDS011;5269;51.146;16.986;2022-08-01T11:02:25;6.28;;;3.90;;
10442;SDS011;5269;51.146;16.986;2022-08-01T11:04:55;7.95;;;3.60;;
10442;SDS011;5269;51.146;16.986;2022-08-01T11:07:34;3.97;;;3.67;;
10442;SDS011;5269;51.146;16.986;2022-08-01T11:10:09;4.60;;;3.72;;
10442;SDS011;5269;51.146;16.986;2022-08-01T11:12:42;4.28;;;3.60;;
10442;SDS011;5269;51.146;16.986;2022-08-01T11:15:16;4.22;;;3.80;;
10442;SDS011;5269;51.146;16.986;2022-08-01T11:17:51;5.15;;;3.70;;
10442;SDS011;5269;51.146;16.986;2022-08-01T11:20:19;4.68;;;4.20;;
10442;SDS011;5269;51.146;16.986;2022-08-01T11:28:39;4.25;;;3.85;;
10442;SDS011;5269;51.146;16.986;2022-08-01T11:33:56;3.53;;;3.22;;
10442;SDS011;5269;51.146;16.986;2022-08-01T11:36:24;3.88;;;3.58;;
10442;SDS011;5269;51.146;16.986;2022-08-01T11:39:12;3.88;;;3.58;;
10442;SDS011;5269;51.146;16.986;2022-08-01T11:41:41;4.38;;;3.80;;
10442;SDS011;5269;51.146;16.986;2022-08-01T11:44:11;4.32;;;3.92;;
10442;SDS011;5269;51.146;16.986;2022-08-01T11:46:47;4.55;;;3.88;;
10442;SDS011;5269;51.146;16.986;2022-08-01T11:49:29;5.72;;;3.63;;
10442;SDS011;5269;51.146;16.986;2022-08-01T11:52:11;3.75;;;3.25;;
10442;SDS011;5269;51.146;16.986;2022-08-01T11:54:42;4.55;;;3.50;;
10442;SDS011;5269;51.146;16.986;2022-08-01T11:57:13;4.72;;;3.45;;
10442;SDS011;5269;51.146;16.986;2022-08-01T11:59:44;3.40;;;3.20;;
10442;SDS011;5269;51.146;16.986;2022-08-01T12:02:20;3.50;;;3.22;;
10442;SDS011;5269;51.146;16.986;2022-08-01T12:04:50;3.75;;;3.45;;
10442;SDS011;5269;51.146;16.986;2022-08-01T12:07:19;3.90;;;3.40;;
10442;SDS011;5269;51.146;16.986;2022-08-01T12:09:48;4.03;;;3.65;;
10442;SDS011;5269;51.146;16.986;2022-08-01T12:12:22;3.92;;;3.63;;
10442;SDS011;5269;51.146;16.986;2022-08-01T12:15:06;4.07;;;3.78;;
10442;SDS011;5269;51.146;16.986;2022-08-01T12:20:48;4.20;;;3.80;;
10442;SDS011;5269;51.146;16.986;2022-08-01T12:23:15;3.60;;;3.38;;
10442;SDS011;5269;51.146;16.986;2022-08-01T12:25:44;4.30;;;3.90;;
10442;SDS011;5269;51.146;16.986;2022-08-01T12:28:30;4.18;;;3.70;;
10442;SDS011;5269;51.146;16.986;2022-08-01T12:31:04;4.95;;;4.32;;
10442;SDS011;5269;51.146;16.986;2022-08-01T12:33:31;4.38;;;4.07;;
10442;SDS011;5269;51.146;16.986;2022-08-01T12:35:58;4.25;;;3.85;;
10442;SDS011;5269;51.146;16.986;2022-08-01T12:38:37;4.32;;;3.90;;
10442;SDS011;5269;51.146;16.986;2022-08-01T12:41:05;4.47;;;4.10;;
10442;SDS011;5269;51.146;16.986;2022-08-01T12:43:36;5.93;;;3.58;;
10442;SDS011;5269;51.146;16.986;2022-08-01T12:46:06;3.67;;;3.47;;
10442;SDS011;5269;51.146;16.986;2022-08-01T12:48:41;4.28;;;3.58;;
10442;SDS011;5269;51.146;16.986;2022-08-01T12:51:08;5.57;;;3.60;;
10442;SDS011;5269;51.146;16.986;2022-08-01T12:53:36;4.63;;;3.78;;
10442;SDS011;5269;51.146;16.986;2022-08-01T12:56:03;3.95;;;3.50;;
10442;SDS011;5269;51.146;16.986;2022-08-01T12:58:35;4.35;;;3.92;;
10442;SDS011;5269;51.146;16.986;2022-08-01T13:01:04;4.20;;;3.90;;
10442;SDS011;5269;51.146;16.986;2022-08-01T13:03:32;4.57;;;3.80;;
10442;SDS011;5269;51.146;16.986;2022-08-01T13:05:59;4.07;;;3.88;;
10442;SDS011;5269;51.146;16.986;2022-08-01T13:15:20;4.47;;;4.07;;
10442;SDS011;5269;51.146;16.986;2022-08-01T13:17:49;3.78;;;3.58;;
10442;SDS011;5269;51.146;16.986;2022-08-01T13:20:34;4.43;;;3.80;;
10442;SDS011;5269;51.146;16.986;2022-08-01T13:26:43;4.93;;;3.50;;
10442;SDS011;5269;51.146;16.986;2022-08-01T13:32:30;3.83;;;3.53;;
10442;SDS011;5269;51.146;16.986;2022-08-01T13:35:10;3.90;;;3.60;;
10442;SDS011;5269;51.146;16.986;2022-08-01T13:37:41;3.78;;;3.30;;
10442;SDS011;5269;51.146;16.986;2022-08-01T13:40:09;3.90;;;3.53;;
10442;SDS011;5269;51.146;16.986;2022-08-01T13:43:01;4.13;;;3.72;;
10442;SDS011;5269;51.146;16.986;2022-08-01T13:45:29;3.78;;;3.55;;
10442;SDS011;5269;51.146;16.986;2022-08-01T13:47:57;3.55;;;3.35;;
10442;SDS011;5269;51.146;16.986;2022-08-01T13:50:24;4.00;;;3.67;;
10442;SDS011;5269;51.146;16.986;2022-08-01T13:52:51;4.25;;;3.92;;
10442;SDS011;5269;51.146;16.986;2022-08-01T13:55:18;3.33;;;3.13;;
10442;SDS011;5269;51.146;16.986;2022-08-01T13:57:45;4.00;;;3.53;;
10442;SDS011;5269;51.146;16.986;2022-08-01T14:00:13;5.03;;;3.65;;
10442;SDS011;5269;51.146;16.986;2022-08-01T14:02:40;3.90;;;3.70;;
10442;SDS011;5269;51.146;16.986;2022-08-01T14:05:08;3.67;;;3.38;;
10442;SDS011;5269;51.146;16.986;2022-08-01T14:07:36;4.50;;;3.47;;
10442;SDS011;5269;51.146;16.986;2022-08-01T14:10:11;3.60;;;3.40;;
10442;SDS011;5269;51.146;16.986;2022-08-01T14:12:48;3.88;;;3.42;;
10442;SDS011;5269;51.146;16.986;2022-08-01T14:15:15;4.03;;;3.65;;
10442;SDS011;5269;51.146;16.986;2022-08-01T14:17:47;4.10;;;3.70;;
10442;SDS011;5269;51.146;16.986;2022-08-01T14:20:15;4.03;;;3.83;;
10442;SDS011;5269;51.146;16.986;2022-08-01T14:22:44;4.00;;;3.72;;
10442;SDS011;5269;51.146;16.986;2022-08-01T14:25:15;4.10;;;3.80;;
10442;SDS011;5269;51.146;16.986;2022-08-01T14:27:43;3.85;;;3.50;;
10442;SDS011;5269;51.146;16.986;2022-08-01T14:30:13;4.88;;;3.17;;
10442;SDS011;5269;51.146;16.986;2022-08-01T14:35:17;3.72;;;2.80;;
10442;SDS011;5269;51.146;16.986;2022-08-01T14:37:44;3.10;;;2.90;;
10442;SDS011;5269;51.146;16.986;2022-08-01T14:43:36;2.20;;;2.10;;
10442;SDS011;5269;51.146;16.986;2022-08-01T14:46:03;2.45;;;2.30;;
10442;SDS011;5269;51.146;16.986;2022-08-01T14:48:30;2.58;;;2.20;;
10442;SDS011;5269;51.146;16.986;2022-08-01T14:50:59;2.75;;;2.45;;
10442;SDS011;5269;51.146;16.986;2022-08-01T14:53:27;2.47;;;2.38;;
10442;SDS011;5269;51.146;16.986;2022-08-01T14:55:54;3.03;;;2.72;;
10442;SDS011;5269;51.146;16.986;2022-08-01T14:58:21;2.88;;;2.75;;
10442;SDS011;5269;51.146;16.986;2022-08-01T15:00:48;2.30;;;2.20;;
10442;SDS011;5269;51.146;16.986;2022-08-01T15:03:19;2.22;;;2.13;;
10442;SDS011;5269;51.146;16.986;2022-08-01T15:05:46;2.42;;;2.30;;
10442;SDS011;5269;51.146;16.986;2022-08-01T15:08:17;2.75;;;2.65;;
10442;SDS011;5269;51.146;16.986;2022-08-01T15:10:44;2.00;;;1.90;;
10442;SDS011;5269;51.146;16.986;2022-08-01T15:13:11;2.40;;;2.30;;
10442;SDS011;5269;51.146;16.986;2022-08-01T15:15:38;2.83;;;2.60;;
10442;SDS011;5269;51.146;16.986;2022-08-01T15:18:05;2.67;;;2.50;;
10442;SDS011;5269;51.146;16.986;2022-08-01T15:20:32;3.53;;;2.50;;
10442;SDS011;5269;51.146;16.986;2022-08-01T15:22:59;2.47;;;2.38;;
10442;SDS011;5269;51.146;16.986;2022-08-01T15:25:28;2.83;;;2.63;;
10442;SDS011;5269;51.146;16.986;2022-08-01T15:27:55;2.60;;;2.50;;
10442;SDS011;5269;51.146;16.986;2022-08-01T15:30:25;2.80;;;2.58;;
10442;SDS011;5269;51.146;16.986;2022-08-01T15:32:55;3.65;;;2.63;;
10442;SDS011;5269;51.146;16.986;2022-08-01T15:35:21;2.70;;;2.50;;
10442;SDS011;5269;51.146;16.986;2022-08-01T15:37:48;2.35;;;2.17;;
10442;SDS011;5269;51.146;16.986;2022-08-01T15:40:15;2.28;;;2.15;;